sensor_id;sensor_type;location;lat;lon;timestamp;P1;durP1;ratioP1;P2;durP2;ratioP2
609;SDS011;292;48.800;9.216;2023-04-25T00:02:24;3.53;;;1.13;;
609;SDS011;292;48.800;9.216;2023-04-25T00:04:51;0.90;;;0.83;;
609;SDS011;292;48.800;9.216;2023-04-25T00:07:18;2.53;;;1.17;;
609;SDS011;292;48.800;9.216;2023-04-25T00:09:45;2.40;;;1.43;;
609;SDS011;292;48.800;9.216;2023-04-25T00:12:12;2.37;;;0.97;;
609;SDS011;292;48.800;9.216;2023-04-25T00:14:42;3.13;;;1.27;;
609;SDS011;292;48.800;9.216;2023-04-25T00:17:10;2.00;;;0.97;;
609;SDS011;292;48.800;9.216;2023-04-25T00:19:37;2.07;;;1.00;;
609;SDS011;292;48.800;9.216;2023-04-25T00:22:04;5.33;;;1.20;;
609;SDS011;292;48.800;9.216;2023-04-25T00:24:31;3.60;;;1.40;;
609;SDS011;292;48.800;9.216;2023-04-25T00:26:58;3.53;;;1.20;;
609;SDS011;292;48.800;9.216;2023-04-25T00:29:25;2.83;;;1.37;;
609;SDS011;292;48.800;9.216;2023-04-25T00:31:54;1.77;;;1.17;;
609;SDS011;292;48.800;9.216;2023-04-25T00:34:21;1.20;;;0.93;;
609;SDS011;292;48.800;9.216;2023-04-25T00:36:48;1.57;;;1.43;;
609;SDS011;292;48.800;9.216;2023-04-25T00:39:15;1.87;;;1.20;;
609;SDS011;292;48.800;9.216;2023-04-25T00:41:42;1.37;;;1.20;;
609;SDS011;292;48.800;9.216;2023-04-25T00:44:10;7.47;;;1.60;;
609;SDS011;292;48.800;9.216;2023-04-25T00:46:38;2.27;;;1.10;;
609;SDS011;292;48.800;9.216;2023-04-25T00:49:07;4.90;;;1.50;;
609;SDS011;292;48.800;9.216;2023-04-25T00:51:38;4.00;;;1.23;;
609;SDS011;292;48.800;9.216;2023-04-25T00:54:06;2.20;;;1.50;;
609;SDS011;292;48.800;9.216;2023-04-25T00:56:33;1.90;;;1.27;;
609;SDS011;292;48.800;9.216;2023-04-25T00:59:00;5.33;;;1.40;;
609;SDS011;292;48.800;9.216;2023-04-25T01:01:27;5.87;;;1.20;;
609;SDS011;292;48.800;9.216;2023-04-25T01:03:54;4.03;;;1.37;;
609;SDS011;292;48.800;9.216;2023-04-25T01:06:24;1.90;;;1.40;;
609;SDS011;292;48.800;9.216;2023-04-25T01:08:52;3.87;;;1.60;;
609;SDS011;292;48.800;9.216;2023-04-25T01:11:20;4.70;;;1.40;;
609;SDS011;292;48.800;9.216;2023-04-25T01:13:47;3.10;;;1.33;;
609;SDS011;292;48.800;9.216;2023-04-25T01:16:14;1.87;;;1.50;;
609;SDS011;292;48.800;9.216;2023-04-25T01:18:41;1.83;;;1.53;;
609;SDS011;292;48.800;9.216;2023-04-25T01:21:11;4.60;;;1.80;;
609;SDS011;292;48.800;9.216;2023-04-25T01:23:40;3.07;;;1.10;;
609;SDS011;292;48.800;9.216;2023-04-25T01:26:08;6.63;;;1.97;;
609;SDS011;292;48.800;9.216;2023-04-25T01:28:36;1.50;;;1.40;;
609;SDS011;292;48.800;9.216;2023-04-25T01:31:06;4.40;;;1.77;;
609;SDS011;292;48.800;9.216;2023-04-25T01:33:33;1.23;;;1.20;;
609;SDS011;292;48.800;9.216;2023-04-25T01:36:00;2.53;;;1.50;;
609;SDS011;292;48.800;9.216;2023-04-25T01:38:28;3.17;;;1.83;;
609;SDS011;292;48.800;9.216;2023-04-25T01:40:55;2.27;;;1.70;;
609;SDS011;292;48.800;9.216;2023-04-25T01:43:23;2.77;;;1.50;;
609;SDS011;292;48.800;9.216;2023-04-25T01:45:51;3.60;;;1.70;;
609;SDS011;292;48.800;9.216;2023-04-25T01:48:18;2.07;;;1.63;;
609;SDS011;292;48.800;9.216;2023-04-25T01:50:46;2.47;;;1.60;;
609;SDS011;292;48.800;9.216;2023-04-25T01:53:14;2.40;;;1.23;;
609;SDS011;292;48.800;9.216;2023-04-25T01:55:43;3.37;;;1.83;;
609;SDS011;292;48.800;9.216;2023-04-25T01:58:10;3.93;;;1.40;;
609;SDS011;292;48.800;9.216;2023-04-25T02:00:38;6.77;;;1.70;;
609;SDS011;292;48.800;9.216;2023-04-25T02:03:06;4.60;;;1.40;;
609;SDS011;292;48.800;9.216;2023-04-25T02:05:34;2.17;;;1.43;;
609;SDS011;292;48.800;9.216;2023-04-25T02:08:02;3.40;;;1.73;;
609;SDS011;292;48.800;9.216;2023-04-25T02:10:30;3.57;;;1.60;;
609;SDS011;292;48.800;9.216;2023-04-25T02:12:58;3.67;;;1.70;;
609;SDS011;292;48.800;9.216;2023-04-25T02:15:25;8.17;;;1.53;;
609;SDS011;292;48.800;9.216;2023-04-25T02:17:52;5.20;;;2.00;;
609;SDS011;292;48.800;9.216;2023-04-25T02:20:20;1.40;;;1.30;;
609;SDS011;292;48.800;9.216;2023-04-25T02:22:48;3.77;;;1.83;;
609;SDS011;292;48.800;9.216;2023-04-25T02:25:15;7.03;;;1.57;;
609;SDS011;292;48.800;9.216;2023-04-25T02:27:43;1.93;;;1.60;;
609;SDS011;292;48.800;9.216;2023-04-25T02:30:12;2.20;;;1.67;;
609;SDS011;292;48.800;9.216;2023-04-25T02:32:40;2.47;;;1.67;;
609;SDS011;292;48.800;9.216;2023-04-25T02:35:07;3.10;;;1.43;;
609;SDS011;292;48.800;9.216;2023-04-25T02:37:36;2.20;;;1.50;;
609;SDS011;292;48.800;9.216;2023-04-25T02:40:04;3.30;;;1.70;;
609;SDS011;292;48.800;9.216;2023-04-25T02:42:33;3.37;;;1.40;;
609;SDS011;292;48.800;9.216;2023-04-25T02:45:00;2.63;;;1.63;;
609;SDS011;292;48.800;9.216;2023-04-25T02:47:28;3.03;;;1.40;;
609;SDS011;292;48.800;9.216;2023-04-25T02:49:56;3.40;;;1.50;;
609;SDS011;292;48.800;9.216;2023-04-25T02:52:23;1.73;;;1.43;;
609;SDS011;292;48.800;9.216;2023-04-25T02:54:50;3.03;;;1.97;;
609;SDS011;292;48.800;9.216;2023-04-25T02:57:17;3.90;;;1.50;;
609;SDS011;292;48.800;9.216;2023-04-25T02:59:44;6.13;;;2.00;;
609;SDS011;292;48.800;9.216;2023-04-25T03:02:11;3.00;;;1.83;;
609;SDS011;292;48.800;9.216;2023-04-25T03:04:40;4.80;;;1.77;;
609;SDS011;292;48.800;9.216;2023-04-25T03:07:07;1.93;;;1.30;;
609;SDS011;292;48.800;9.216;2023-04-25T03:09:34;5.43;;;1.77;;
609;SDS011;292;48.800;9.216;2023-04-25T03:12:01;2.17;;;1.50;;
609;SDS011;292;48.800;9.216;2023-04-25T03:14:28;3.73;;;1.63;;
609;SDS011;292;48.800;9.216;2023-04-25T03:16:55;4.00;;;1.77;;
609;SDS011;292;48.800;9.216;2023-04-25T03:19:22;4.37;;;2.00;;
609;SDS011;292;48.800;9.216;2023-04-25T03:21:51;3.80;;;1.40;;
609;SDS011;292;48.800;9.216;2023-04-25T03:24:18;1.97;;;1.47;;
609;SDS011;292;48.800;9.216;2023-04-25T03:26:45;2.13;;;1.33;;
609;SDS011;292;48.800;9.216;2023-04-25T03:29:12;8.70;;;1.70;;
609;SDS011;292;48.800;9.216;2023-04-25T03:31:39;3.63;;;1.30;;
609;SDS011;292;48.800;9.216;2023-04-25T03:34:06;1.73;;;1.37;;
609;SDS011;292;48.800;9.216;2023-04-25T03:36:33;4.40;;;1.50;;
609;SDS011;292;48.800;9.216;2023-04-25T03:39:02;2.30;;;1.50;;
609;SDS011;292;48.800;9.216;2023-04-25T03:41:31;7.03;;;1.87;;
609;SDS011;292;48.800;9.216;2023-04-25T03:43:58;5.30;;;1.70;;
609;SDS011;292;48.800;9.216;2023-04-25T03:46:25;6.23;;;2.00;;
609;SDS011;292;48.800;9.216;2023-04-25T03:48:52;4.40;;;1.60;;
609;SDS011;292;48.800;9.216;2023-04-25T03:51:19;5.03;;;2.10;;
609;SDS011;292;48.800;9.216;2023-04-25T03:53:47;2.10;;;1.70;;
609;SDS011;292;48.800;9.216;2023-04-25T03:56:15;8.73;;;2.07;;
609;SDS011;292;48.800;9.216;2023-04-25T03:58:43;7.17;;;1.77;;
609;SDS011;292;48.800;9.216;2023-04-25T04:01:10;3.27;;;2.00;;
609;SDS011;292;48.800;9.216;2023-04-25T04:03:37;5.20;;;1.60;;
609;SDS011;292;48.800;9.216;2023-04-25T04:06:04;4.80;;;2.13;;
609;SDS011;292;48.800;9.216;2023-04-25T04:08:33;3.43;;;1.60;;
609;SDS011;292;48.800;9.216;2023-04-25T04:11:00;8.50;;;1.97;;
609;SDS011;292;48.800;9.216;2023-04-25T04:13:29;2.43;;;1.70;;
609;SDS011;292;48.800;9.216;2023-04-25T04:15:56;3.60;;;1.80;;
609;SDS011;292;48.800;9.216;2023-04-25T04:18:23;4.00;;;1.90;;
609;SDS011;292;48.800;9.216;2023-04-25T04:20:50;3.83;;;1.67;;
609;SDS011;292;48.800;9.216;2023-04-25T04:23:17;9.90;;;2.40;;
609;SDS011;292;48.800;9.216;2023-04-25T04:25:45;4.23;;;2.23;;
609;SDS011;292;48.800;9.216;2023-04-25T04:28:13;4.20;;;1.70;;
609;SDS011;292;48.800;9.216;2023-04-25T04:30:42;3.67;;;2.10;;
609;SDS011;292;48.800;9.216;2023-04-25T04:33:12;3.23;;;1.60;;
609;SDS011;292;48.800;9.216;2023-04-25T04:35:40;3.47;;;1.93;;
609;SDS011;292;48.800;9.216;2023-04-25T04:38:07;2.47;;;1.83;;
609;SDS011;292;48.800;9.216;2023-04-25T04:40:35;3.97;;;2.20;;
609;SDS011;292;48.800;9.216;2023-04-25T04:43:02;6.73;;;2.40;;
609;SDS011;292;48.800;9.216;2023-04-25T04:45:29;4.87;;;2.57;;
609;SDS011;292;48.800;9.216;2023-04-25T04:47:58;4.40;;;2.00;;
609;SDS011;292;48.800;9.216;2023-04-25T04:50:25;4.30;;;2.20;;
609;SDS011;292;48.800;9.216;2023-04-25T04:52:52;4.73;;;1.67;;
609;SDS011;292;48.800;9.216;2023-04-25T04:55:20;3.07;;;2.27;;
609;SDS011;292;48.800;9.216;2023-04-25T04:57:47;5.00;;;2.40;;
609;SDS011;292;48.800;9.216;2023-04-25T05:00:15;6.03;;;2.60;;
609;SDS011;292;48.800;9.216;2023-04-25T05:02:43;7.50;;;2.90;;
609;SDS011;292;48.800;9.216;2023-04-25T05:05:11;4.67;;;2.70;;
609;SDS011;292;48.800;9.216;2023-04-25T05:07:38;6.10;;;2.03;;
609;SDS011;292;48.800;9.216;2023-04-25T05:10:06;9.60;;;2.50;;
609;SDS011;292;48.800;9.216;2023-04-25T05:12:34;6.60;;;2.40;;
609;SDS011;292;48.800;9.216;2023-04-25T05:15:01;5.10;;;2.53;;
609;SDS011;292;48.800;9.216;2023-04-25T05:17:28;5.87;;;2.57;;
609;SDS011;292;48.800;9.216;2023-04-25T05:19:55;7.80;;;2.20;;
609;SDS011;292;48.800;9.216;2023-04-25T05:22:23;4.63;;;2.33;;
609;SDS011;292;48.800;9.216;2023-04-25T05:24:52;3.07;;;1.97;;
609;SDS011;292;48.800;9.216;2023-04-25T05:27:19;7.03;;;2.37;;
609;SDS011;292;48.800;9.216;2023-04-25T05:29:46;15.43;;;3.67;;
609;SDS011;292;48.800;9.216;2023-04-25T05:32:13;19.53;;;3.40;;
609;SDS011;292;48.800;9.216;2023-04-25T05:34:41;5.13;;;2.50;;
609;SDS011;292;48.800;9.216;2023-04-25T05:37:08;29.30;;;5.73;;
609;SDS011;292;48.800;9.216;2023-04-25T05:39:37;5.93;;;2.80;;
609;SDS011;292;48.800;9.216;2023-04-25T05:42:04;4.67;;;2.10;;
609;SDS011;292;48.800;9.216;2023-04-25T05:44:31;5.93;;;2.70;;
609;SDS011;292;48.800;9.216;2023-04-25T05:46:58;5.17;;;2.70;;
609;SDS011;292;48.800;9.216;2023-04-25T05:49:25;5.80;;;2.77;;
609;SDS011;292;48.800;9.216;2023-04-25T05:51:52;10.40;;;3.00;;
609;SDS011;292;48.800;9.216;2023-04-25T05:54:19;10.87;;;3.63;;
609;SDS011;292;48.800;9.216;2023-04-25T05:56:48;4.70;;;2.50;;
609;SDS011;292;48.800;9.216;2023-04-25T05:59:15;3.13;;;2.40;;
609;SDS011;292;48.800;9.216;2023-04-25T06:01:41;6.00;;;2.70;;
609;SDS011;292;48.800;9.216;2023-04-25T06:04:10;5.20;;;2.73;;
609;SDS011;292;48.800;9.216;2023-04-25T06:06:37;5.43;;;2.50;;
609;SDS011;292;48.800;9.216;2023-04-25T06:09:03;4.30;;;2.57;;
609;SDS011;292;48.800;9.216;2023-04-25T06:11:31;3.50;;;2.40;;
609;SDS011;292;48.800;9.216;2023-04-25T06:13:59;4.00;;;2.60;;
609;SDS011;292;48.800;9.216;2023-04-25T06:16:27;4.30;;;2.40;;
609;SDS011;292;48.800;9.216;2023-04-25T06:18:54;5.67;;;2.70;;
609;SDS011;292;48.800;9.216;2023-04-25T06:21:21;4.50;;;2.17;;
609;SDS011;292;48.800;9.216;2023-04-25T06:23:48;4.70;;;2.40;;
609;SDS011;292;48.800;9.216;2023-04-25T06:26:15;3.60;;;2.47;;
609;SDS011;292;48.800;9.216;2023-04-25T06:28:42;2.37;;;2.00;;
609;SDS011;292;48.800;9.216;2023-04-25T06:31:10;4.87;;;2.23;;
609;SDS011;292;48.800;9.216;2023-04-25T06:33:37;7.80;;;3.90;;
609;SDS011;292;48.800;9.216;2023-04-25T06:36:05;5.83;;;2.83;;
609;SDS011;292;48.800;9.216;2023-04-25T06:38:32;7.50;;;2.70;;
609;SDS011;292;48.800;9.216;2023-04-25T06:40:59;4.73;;;2.50;;
609;SDS011;292;48.800;9.216;2023-04-25T06:43:27;5.73;;;2.23;;
609;SDS011;292;48.800;9.216;2023-04-25T06:45:58;4.87;;;2.23;;
609;SDS011;292;48.800;9.216;2023-04-25T06:48:26;3.80;;;2.60;;
609;SDS011;292;48.800;9.216;2023-04-25T06:50:54;3.70;;;2.63;;
609;SDS011;292;48.800;9.216;2023-04-25T06:53:21;5.80;;;2.83;;
609;SDS011;292;48.800;9.216;2023-04-25T06:55:48;4.53;;;2.50;;
609;SDS011;292;48.800;9.216;2023-04-25T06:58:15;9.30;;;2.60;;
609;SDS011;292;48.800;9.216;2023-04-25T07:00:42;2.50;;;2.03;;
609;SDS011;292;48.800;9.216;2023-04-25T07:03:09;4.47;;;2.57;;
609;SDS011;292;48.800;9.216;2023-04-25T07:05:38;4.50;;;2.87;;
609;SDS011;292;48.800;9.216;2023-04-25T07:08:05;6.03;;;2.80;;
609;SDS011;292;48.800;9.216;2023-04-25T07:10:32;8.30;;;2.33;;
609;SDS011;292;48.800;9.216;2023-04-25T07:12:59;4.70;;;2.90;;
609;SDS011;292;48.800;9.216;2023-04-25T07:15:26;3.80;;;2.70;;
609;SDS011;292;48.800;9.216;2023-04-25T07:17:53;4.87;;;2.60;;
609;SDS011;292;48.800;9.216;2023-04-25T07:20:20;9.37;;;2.77;;
609;SDS011;292;48.800;9.216;2023-04-25T07:22:48;4.53;;;2.80;;
609;SDS011;292;48.800;9.216;2023-04-25T07:25:16;4.33;;;2.80;;
609;SDS011;292;48.800;9.216;2023-04-25T07:27:43;10.77;;;3.20;;
609;SDS011;292;48.800;9.216;2023-04-25T07:30:10;10.00;;;3.97;;
609;SDS011;292;48.800;9.216;2023-04-25T07:32:38;13.60;;;4.00;;
609;SDS011;292;48.800;9.216;2023-04-25T07:35:05;6.97;;;3.70;;
609;SDS011;292;48.800;9.216;2023-04-25T07:37:33;9.20;;;4.67;;
609;SDS011;292;48.800;9.216;2023-04-25T07:40:01;5.07;;;3.47;;
609;SDS011;292;48.800;9.216;2023-04-25T07:42:30;5.43;;;3.67;;
609;SDS011;292;48.800;9.216;2023-04-25T07:44:57;12.27;;;3.80;;
609;SDS011;292;48.800;9.216;2023-04-25T07:47:24;12.10;;;4.80;;
609;SDS011;292;48.800;9.216;2023-04-25T07:49:51;9.53;;;3.90;;
609;SDS011;292;48.800;9.216;2023-04-25T07:52:18;11.77;;;4.07;;
609;SDS011;292;48.800;9.216;2023-04-25T07:54:46;6.67;;;3.90;;
609;SDS011;292;48.800;9.216;2023-04-25T07:57:14;32.17;;;5.40;;
609;SDS011;292;48.800;9.216;2023-04-25T07:59:42;9.73;;;4.00;;
609;SDS011;292;48.800;9.216;2023-04-25T08:02:09;7.47;;;3.70;;
609;SDS011;292;48.800;9.216;2023-04-25T08:04:36;6.83;;;4.13;;
609;SDS011;292;48.800;9.216;2023-04-25T08:07:03;7.00;;;3.90;;
609;SDS011;292;48.800;9.216;2023-04-25T08:09:30;6.97;;;3.70;;
609;SDS011;292;48.800;9.216;2023-04-25T08:11:59;8.30;;;4.17;;
609;SDS011;292;48.800;9.216;2023-04-25T08:14:28;6.03;;;3.90;;
609;SDS011;292;48.800;9.216;2023-04-25T08:17:00;8.93;;;5.07;;
609;SDS011;292;48.800;9.216;2023-04-25T08:19:28;7.90;;;4.50;;
609;SDS011;292;48.800;9.216;2023-04-25T08:21:56;8.23;;;4.30;;
609;SDS011;292;48.800;9.216;2023-04-25T08:24:23;12.23;;;4.10;;
609;SDS011;292;48.800;9.216;2023-04-25T08:26:57;6.20;;;3.47;;
609;SDS011;292;48.800;9.216;2023-04-25T08:29:25;6.63;;;3.50;;
609;SDS011;292;48.800;9.216;2023-04-25T08:31:55;9.87;;;3.33;;
609;SDS011;292;48.800;9.216;2023-04-25T08:34:22;7.57;;;3.53;;
609;SDS011;292;48.800;9.216;2023-04-25T08:36:50;7.40;;;3.97;;
609;SDS011;292;48.800;9.216;2023-04-25T08:39:17;7.27;;;3.03;;
609;SDS011;292;48.800;9.216;2023-04-25T08:41:45;6.13;;;4.10;;
609;SDS011;292;48.800;9.216;2023-04-25T08:44:12;10.40;;;4.00;;
609;SDS011;292;48.800;9.216;2023-04-25T08:46:40;16.67;;;4.80;;
609;SDS011;292;48.800;9.216;2023-04-25T08:49:09;6.20;;;3.83;;
609;SDS011;292;48.800;9.216;2023-04-25T08:51:45;7.03;;;3.33;;
609;SDS011;292;48.800;9.216;2023-04-25T08:54:13;4.23;;;2.83;;
609;SDS011;292;48.800;9.216;2023-04-25T08:56:41;7.10;;;3.03;;
609;SDS011;292;48.800;9.216;2023-04-25T08:59:14;6.17;;;3.60;;
609;SDS011;292;48.800;9.216;2023-04-25T09:01:42;20.17;;;4.10;;
609;SDS011;292;48.800;9.216;2023-04-25T09:04:12;7.73;;;4.13;;
609;SDS011;292;48.800;9.216;2023-04-25T09:06:41;15.20;;;4.20;;
609;SDS011;292;48.800;9.216;2023-04-25T09:09:09;49.27;;;7.23;;
609;SDS011;292;48.800;9.216;2023-04-25T09:11:37;12.80;;;4.43;;
609;SDS011;292;48.800;9.216;2023-04-25T09:14:12;12.83;;;4.40;;
609;SDS011;292;48.800;9.216;2023-04-25T09:16:57;8.83;;;3.60;;
609;SDS011;292;48.800;9.216;2023-04-25T09:19:27;5.17;;;3.20;;
609;SDS011;292;48.800;9.216;2023-04-25T09:21:55;3.70;;;2.87;;
609;SDS011;292;48.800;9.216;2023-04-25T09:24:32;11.73;;;4.30;;
609;SDS011;292;48.800;9.216;2023-04-25T09:27:02;7.03;;;4.20;;
609;SDS011;292;48.800;9.216;2023-04-25T09:29:31;6.10;;;3.70;;
609;SDS011;292;48.800;9.216;2023-04-25T09:32:15;6.47;;;3.80;;
609;SDS011;292;48.800;9.216;2023-04-25T09:34:46;6.37;;;3.47;;
609;SDS011;292;48.800;9.216;2023-04-25T09:37:18;5.90;;;3.10;;
609;SDS011;292;48.800;9.216;2023-04-25T09:39:47;8.33;;;3.90;;
609;SDS011;292;48.800;9.216;2023-04-25T09:42:15;6.03;;;3.90;;
609;SDS011;292;48.800;9.216;2023-04-25T09:44:43;6.30;;;3.77;;
609;SDS011;292;48.800;9.216;2023-04-25T09:47:12;9.20;;;4.10;;
609;SDS011;292;48.800;9.216;2023-04-25T09:49:41;4.50;;;2.50;;
609;SDS011;292;48.800;9.216;2023-04-25T09:52:15;5.60;;;2.40;;
609;SDS011;292;48.800;9.216;2023-04-25T09:54:43;3.60;;;2.33;;
609;SDS011;292;48.800;9.216;2023-04-25T09:57:13;2.90;;;1.77;;
609;SDS011;292;48.800;9.216;2023-04-25T09:59:46;1.57;;;1.50;;
609;SDS011;292;48.800;9.216;2023-04-25T10:02:15;3.77;;;1.97;;
609;SDS011;292;48.800;9.216;2023-04-25T10:04:47;3.17;;;2.27;;
609;SDS011;292;48.800;9.216;2023-04-25T10:07:19;2.97;;;1.83;;
609;SDS011;292;48.800;9.216;2023-04-25T10:09:48;4.97;;;1.73;;
609;SDS011;292;48.800;9.216;2023-04-25T10:12:17;6.13;;;3.43;;
609;SDS011;292;48.800;9.216;2023-04-25T10:14:47;4.37;;;2.80;;
609;SDS011;292;48.800;9.216;2023-04-25T10:17:15;2.77;;;2.00;;
609;SDS011;292;48.800;9.216;2023-04-25T10:19:43;2.67;;;1.70;;
609;SDS011;292;48.800;9.216;2023-04-25T10:22:14;5.47;;;2.23;;
609;SDS011;292;48.800;9.216;2023-04-25T10:24:55;6.20;;;2.53;;
609;SDS011;292;48.800;9.216;2023-04-25T10:27:23;3.67;;;2.42;;
609;SDS011;292;48.800;9.216;2023-04-25T10:30:00;11.80;;;4.20;;
609;SDS011;292;48.800;9.216;2023-04-25T10:32:30;8.03;;;4.20;;
609;SDS011;292;48.800;9.216;2023-04-25T10:34:57;8.95;;;4.10;;
609;SDS011;292;48.800;9.216;2023-04-25T10:37:37;4.15;;;2.60;;
609;SDS011;292;48.800;9.216;2023-04-25T10:40:08;6.32;;;2.03;;
609;SDS011;292;48.800;9.216;2023-04-25T10:42:36;3.27;;;1.90;;
609;SDS011;292;48.800;9.216;2023-04-25T10:45:04;5.82;;;2.05;;
609;SDS011;292;48.800;9.216;2023-04-25T10:47:35;2.58;;;1.98;;
609;SDS011;292;48.800;9.216;2023-04-25T10:50:07;4.85;;;2.53;;
609;SDS011;292;48.800;9.216;2023-04-25T10:52:39;4.97;;;2.60;;
609;SDS011;292;48.800;9.216;2023-04-25T10:55:07;7.05;;;3.60;;
609;SDS011;292;48.800;9.216;2023-04-25T10:57:39;9.57;;;3.78;;
609;SDS011;292;48.800;9.216;2023-04-25T11:00:11;5.93;;;3.40;;
609;SDS011;292;48.800;9.216;2023-04-25T11:02:42;6.95;;;4.50;;
609;SDS011;292;48.800;9.216;2023-04-25T11:05:15;9.50;;;4.25;;
609;SDS011;292;48.800;9.216;2023-04-25T11:07:51;8.23;;;3.38;;
609;SDS011;292;48.800;9.216;2023-04-25T11:10:19;14.43;;;3.53;;
609;SDS011;292;48.800;9.216;2023-04-25T11:12:51;7.55;;;2.67;;
609;SDS011;292;48.800;9.216;2023-04-25T11:15:18;2.03;;;1.40;;
609;SDS011;292;48.800;9.216;2023-04-25T11:17:50;3.08;;;1.85;;
609;SDS011;292;48.800;9.216;2023-04-25T11:20:18;2.58;;;1.85;;
609;SDS011;292;48.800;9.216;2023-04-25T11:22:45;7.25;;;2.25;;
609;SDS011;292;48.800;9.216;2023-04-25T11:25:15;9.57;;;2.63;;
609;SDS011;292;48.800;9.216;2023-04-25T11:27:51;9.75;;;2.28;;
609;SDS011;292;48.800;9.216;2023-04-25T11:30:19;12.07;;;3.22;;
609;SDS011;292;48.800;9.216;2023-04-25T11:32:48;9.32;;;2.50;;
609;SDS011;292;48.800;9.216;2023-04-25T11:35:16;12.38;;;2.90;;
609;SDS011;292;48.800;9.216;2023-04-25T11:37:44;4.38;;;2.22;;
609;SDS011;292;48.800;9.216;2023-04-25T11:40:12;4.38;;;3.03;;
609;SDS011;292;48.800;9.216;2023-04-25T11:42:43;5.07;;;2.70;;
609;SDS011;292;48.800;9.216;2023-04-25T11:45:12;8.52;;;2.83;;
609;SDS011;292;48.800;9.216;2023-04-25T11:47:40;8.10;;;3.47;;
609;SDS011;292;48.800;9.216;2023-04-25T11:50:07;17.85;;;3.13;;
609;SDS011;292;48.800;9.216;2023-04-25T11:52:36;7.65;;;2.40;;
609;SDS011;292;48.800;9.216;2023-04-25T11:55:09;8.52;;;2.38;;
609;SDS011;292;48.800;9.216;2023-04-25T11:57:42;5.60;;;2.03;;
609;SDS011;292;48.800;9.216;2023-04-25T12:00:12;12.07;;;2.50;;
609;SDS011;292;48.800;9.216;2023-04-25T12:02:42;5.47;;;2.40;;
609;SDS011;292;48.800;9.216;2023-04-25T12:05:10;6.93;;;2.30;;
609;SDS011;292;48.800;9.216;2023-04-25T12:07:39;5.47;;;3.13;;
609;SDS011;292;48.800;9.216;2023-04-25T12:10:08;6.27;;;3.23;;
609;SDS011;292;48.800;9.216;2023-04-25T12:12:37;9.70;;;2.70;;
609;SDS011;292;48.800;9.216;2023-04-25T12:15:12;6.63;;;3.47;;
609;SDS011;292;48.800;9.216;2023-04-25T12:17:44;5.88;;;2.80;;
609;SDS011;292;48.800;9.216;2023-04-25T12:20:13;6.60;;;3.30;;
609;SDS011;292;48.800;9.216;2023-04-25T12:22:41;4.80;;;3.70;;
609;SDS011;292;48.800;9.216;2023-04-25T12:25:10;4.83;;;3.00;;
609;SDS011;292;48.800;9.216;2023-04-25T12:27:38;6.80;;;3.97;;
609;SDS011;292;48.800;9.216;2023-04-25T12:30:09;6.67;;;3.50;;
609;SDS011;292;48.800;9.216;2023-04-25T12:32:38;6.27;;;3.30;;
609;SDS011;292;48.800;9.216;2023-04-25T12:35:06;7.27;;;3.60;;
609;SDS011;292;48.800;9.216;2023-04-25T12:37:34;8.90;;;4.03;;
609;SDS011;292;48.800;9.216;2023-04-25T12:40:04;21.70;;;6.88;;
609;SDS011;292;48.800;9.216;2023-04-25T12:42:34;20.90;;;5.40;;
609;SDS011;292;48.800;9.216;2023-04-25T12:45:01;7.00;;;3.43;;
609;SDS011;292;48.800;9.216;2023-04-25T12:47:28;7.70;;;4.30;;
609;SDS011;292;48.800;9.216;2023-04-25T12:49:59;10.60;;;4.93;;
609;SDS011;292;48.800;9.216;2023-04-25T12:52:26;20.07;;;6.07;;
609;SDS011;292;48.800;9.216;2023-04-25T12:54:53;15.40;;;5.80;;
609;SDS011;292;48.800;9.216;2023-04-25T12:57:22;12.50;;;4.93;;
609;SDS011;292;48.800;9.216;2023-04-25T12:59:49;16.20;;;6.00;;
609;SDS011;292;48.800;9.216;2023-04-25T13:02:18;17.80;;;7.43;;
609;SDS011;292;48.800;9.216;2023-04-25T13:04:45;16.03;;;5.03;;
609;SDS011;292;48.800;9.216;2023-04-25T13:07:16;11.40;;;5.27;;
609;SDS011;292;48.800;9.216;2023-04-25T13:09:43;12.10;;;5.13;;
609;SDS011;292;48.800;9.216;2023-04-25T13:12:10;9.40;;;5.50;;
609;SDS011;292;48.800;9.216;2023-04-25T13:14:37;9.37;;;4.80;;
609;SDS011;292;48.800;9.216;2023-04-25T13:17:07;10.30;;;4.80;;
609;SDS011;292;48.800;9.216;2023-04-25T13:19:34;8.37;;;4.67;;
609;SDS011;292;48.800;9.216;2023-04-25T13:22:03;51.20;;;14.50;;
609;SDS011;292;48.800;9.216;2023-04-25T13:24:32;140.83;;;30.70;;
609;SDS011;292;48.800;9.216;2023-04-25T13:26:59;83.10;;;20.30;;
609;SDS011;292;48.800;9.216;2023-04-25T13:29:26;15.40;;;7.37;;
609;SDS011;292;48.800;9.216;2023-04-25T13:31:53;10.60;;;5.60;;
609;SDS011;292;48.800;9.216;2023-04-25T13:34:20;12.30;;;5.70;;
609;SDS011;292;48.800;9.216;2023-04-25T13:36:47;10.70;;;5.83;;
609;SDS011;292;48.800;9.216;2023-04-25T13:39:14;12.77;;;5.20;;
609;SDS011;292;48.800;9.216;2023-04-25T13:41:43;13.47;;;5.83;;
609;SDS011;292;48.800;9.216;2023-04-25T13:44:10;7.40;;;4.97;;
609;SDS011;292;48.800;9.216;2023-04-25T13:46:37;13.47;;;5.40;;
609;SDS011;292;48.800;9.216;2023-04-25T13:49:04;14.23;;;6.33;;
609;SDS011;292;48.800;9.216;2023-04-25T13:51:31;16.70;;;6.07;;
609;SDS011;292;48.800;9.216;2023-04-25T13:53:58;14.20;;;6.57;;
609;SDS011;292;48.800;9.216;2023-04-25T13:56:25;13.57;;;7.30;;
609;SDS011;292;48.800;9.216;2023-04-25T13:58:54;14.73;;;6.60;;
609;SDS011;292;48.800;9.216;2023-04-25T14:01:21;18.50;;;7.40;;
609;SDS011;292;48.800;9.216;2023-04-25T14:03:48;12.27;;;7.03;;
609;SDS011;292;48.800;9.216;2023-04-25T14:06:17;13.30;;;7.40;;
609;SDS011;292;48.800;9.216;2023-04-25T14:08:48;14.07;;;7.00;;
609;SDS011;292;48.800;9.216;2023-04-25T14:11:15;13.13;;;6.57;;
609;SDS011;292;48.800;9.216;2023-04-25T14:13:44;14.70;;;8.50;;
609;SDS011;292;48.800;9.216;2023-04-25T14:16:13;39.20;;;18.77;;
609;SDS011;292;48.800;9.216;2023-04-25T14:18:40;18.40;;;9.30;;
609;SDS011;292;48.800;9.216;2023-04-25T14:21:09;15.80;;;7.30;;
609;SDS011;292;48.800;9.216;2023-04-25T14:23:38;18.70;;;7.57;;
609;SDS011;292;48.800;9.216;2023-04-25T14:26:05;13.67;;;6.40;;
609;SDS011;292;48.800;9.216;2023-04-25T14:28:32;10.77;;;6.00;;
609;SDS011;292;48.800;9.216;2023-04-25T14:30:59;15.00;;;6.87;;
609;SDS011;292;48.800;9.216;2023-04-25T14:33:30;15.73;;;5.37;;
609;SDS011;292;48.800;9.216;2023-04-25T14:35:58;14.50;;;5.87;;
609;SDS011;292;48.800;9.216;2023-04-25T14:38:26;9.10;;;5.13;;
609;SDS011;292;48.800;9.216;2023-04-25T14:40:59;6.43;;;4.63;;
609;SDS011;292;48.800;9.216;2023-04-25T14:43:27;10.67;;;5.30;;
609;SDS011;292;48.800;9.216;2023-04-25T14:45:54;6.83;;;4.60;;
609;SDS011;292;48.800;9.216;2023-04-25T14:48:21;10.00;;;5.30;;
609;SDS011;292;48.800;9.216;2023-04-25T14:50:50;10.30;;;4.80;;
609;SDS011;292;48.800;9.216;2023-04-25T14:53:17;9.10;;;4.10;;
609;SDS011;292;48.800;9.216;2023-04-25T14:55:47;9.93;;;4.17;;
609;SDS011;292;48.800;9.216;2023-04-25T14:58:14;10.10;;;4.43;;
609;SDS011;292;48.800;9.216;2023-04-25T15:00:42;8.53;;;4.90;;
609;SDS011;292;48.800;9.216;2023-04-25T15:03:09;7.20;;;4.57;;
609;SDS011;292;48.800;9.216;2023-04-25T15:05:38;12.83;;;6.03;;
609;SDS011;292;48.800;9.216;2023-04-25T15:08:07;11.03;;;5.80;;
609;SDS011;292;48.800;9.216;2023-04-25T15:10:34;9.00;;;5.70;;
609;SDS011;292;48.800;9.216;2023-04-25T15:13:01;10.80;;;5.07;;
609;SDS011;292;48.800;9.216;2023-04-25T15:15:29;15.43;;;5.43;;
609;SDS011;292;48.800;9.216;2023-04-25T15:17:57;8.20;;;4.83;;
609;SDS011;292;48.800;9.216;2023-04-25T15:20:24;8.40;;;4.73;;
609;SDS011;292;48.800;9.216;2023-04-25T15:22:53;8.20;;;5.27;;
609;SDS011;292;48.800;9.216;2023-04-25T15:25:23;8.87;;;4.77;;
609;SDS011;292;48.800;9.216;2023-04-25T15:27:53;12.10;;;4.73;;
609;SDS011;292;48.800;9.216;2023-04-25T15:30:20;8.90;;;4.70;;
609;SDS011;292;48.800;9.216;2023-04-25T15:32:48;11.97;;;5.07;;
609;SDS011;292;48.800;9.216;2023-04-25T15:35:15;7.03;;;4.23;;
609;SDS011;292;48.800;9.216;2023-04-25T15:37:43;10.90;;;5.13;;
609;SDS011;292;48.800;9.216;2023-04-25T15:40:11;7.50;;;4.13;;
609;SDS011;292;48.800;9.216;2023-04-25T15:42:43;8.83;;;4.80;;
609;SDS011;292;48.800;9.216;2023-04-25T15:45:16;11.33;;;5.10;;
609;SDS011;292;48.800;9.216;2023-04-25T15:47:44;7.70;;;4.90;;
609;SDS011;292;48.800;9.216;2023-04-25T15:50:11;8.30;;;4.50;;